sensor_id;sensor_type;location;lat;lon;timestamp;P1;durP1;ratioP1;P2;durP2;ratioP2
37527;SDS011;23372;52.050;4.810;2023-08-17T00:01:23;7.95;;;2.47;;
37527;SDS011;23372;52.050;4.810;2023-08-17T00:03:48;5.72;;;2.53;;
37527;SDS011;23372;52.050;4.810;2023-08-17T00:06:14;7.60;;;2.25;;
37527;SDS011;23372;52.050;4.810;2023-08-17T00:08:39;7.68;;;2.38;;
37527;SDS011;23372;52.050;4.810;2023-08-17T00:11:05;7.20;;;2.53;;
37527;SDS011;23372;52.050;4.810;2023-08-17T00:13:30;5.22;;;2.33;;
37527;SDS011;23372;52.050;4.810;2023-08-17T00:15:56;5.50;;;2.40;;
37527;SDS011;23372;52.050;4.810;2023-08-17T00:18:21;4.80;;;2.15;;
37527;SDS011;23372;52.050;4.810;2023-08-17T00:20:47;4.80;;;2.35;;
37527;SDS011;23372;52.050;4.810;2023-08-17T00:23:13;5.90;;;2.38;;
37527;SDS011;23372;52.050;4.810;2023-08-17T00:25:38;8.07;;;2.45;;
37527;SDS011;23372;52.050;4.810;2023-08-17T00:28:04;3.83;;;2.50;;
37527;SDS011;23372;52.050;4.810;2023-08-17T00:30:30;7.15;;;2.30;;
37527;SDS011;23372;52.050;4.810;2023-08-17T00:32:55;8.43;;;2.80;;
37527;SDS011;23372;52.050;4.810;2023-08-17T00:35:21;9.98;;;3.33;;
37527;SDS011;23372;52.050;4.810;2023-08-17T00:37:47;4.80;;;2.38;;
37527;SDS011;23372;52.050;4.810;2023-08-17T00:40:12;5.63;;;2.53;;
37527;SDS011;23372;52.050;4.810;2023-08-17T00:42:38;6.63;;;2.50;;
37527;SDS011;23372;52.050;4.810;2023-08-17T00:45:03;5.85;;;2.85;;
37527;SDS011;23372;52.050;4.810;2023-08-17T00:47:29;5.20;;;2.17;;
37527;SDS011;23372;52.050;4.810;2023-08-17T00:49:56;5.10;;;2.53;;
37527;SDS011;23372;52.050;4.810;2023-08-17T00:52:23;7.50;;;3.17;;
37527;SDS011;23372;52.050;4.810;2023-08-17T00:54:48;7.35;;;3.50;;
37527;SDS011;23372;52.050;4.810;2023-08-17T00:57:14;5.90;;;2.63;;
37527;SDS011;23372;52.050;4.810;2023-08-17T00:59:39;5.78;;;2.85;;
37527;SDS011;23372;52.050;4.810;2023-08-17T01:02:05;12.65;;;3.28;;
37527;SDS011;23372;52.050;4.810;2023-08-17T01:04:31;4.85;;;2.58;;
37527;SDS011;23372;52.050;4.810;2023-08-17T01:06:57;7.70;;;2.80;;
37527;SDS011;23372;52.050;4.810;2023-08-17T01:09:23;6.05;;;2.65;;
37527;SDS011;23372;52.050;4.810;2023-08-17T01:14:58;8.48;;;2.72;;
37527;SDS011;23372;52.050;4.810;2023-08-17T01:17:43;5.50;;;2.17;;
37527;SDS011;23372;52.050;4.810;2023-08-17T01:20:13;10.65;;;3.50;;
37527;SDS011;23372;52.050;4.810;2023-08-17T01:22:41;7.13;;;2.97;;
37527;SDS011;23372;52.050;4.810;2023-08-17T01:25:07;5.22;;;2.50;;
37527;SDS011;23372;52.050;4.810;2023-08-17T01:27:40;10.60;;;2.17;;
37527;SDS011;23372;52.050;4.810;2023-08-17T01:30:09;8.73;;;2.80;;
37527;SDS011;23372;52.050;4.810;2023-08-17T01:32:41;7.60;;;2.95;;
37527;SDS011;23372;52.050;4.810;2023-08-17T01:35:30;4.90;;;2.25;;
37527;SDS011;23372;52.050;4.810;2023-08-17T01:38:02;4.65;;;2.53;;
37527;SDS011;23372;52.050;4.810;2023-08-17T01:40:33;4.88;;;2.85;;
37527;SDS011;23372;52.050;4.810;2023-08-17T01:43:00;5.15;;;2.45;;
37527;SDS011;23372;52.050;4.810;2023-08-17T01:45:27;4.70;;;2.53;;
37527;SDS011;23372;52.050;4.810;2023-08-17T01:47:52;6.45;;;2.72;;
37527;SDS011;23372;52.050;4.810;2023-08-17T01:50:19;4.82;;;2.35;;
37527;SDS011;23372;52.050;4.810;2023-08-17T01:52:45;8.10;;;2.50;;
37527;SDS011;23372;52.050;4.810;2023-08-17T01:55:11;7.78;;;2.67;;
37527;SDS011;23372;52.050;4.810;2023-08-17T01:57:36;6.38;;;2.53;;
37527;SDS011;23372;52.050;4.810;2023-08-17T02:00:03;6.75;;;2.38;;
37527;SDS011;23372;52.050;4.810;2023-08-17T02:02:32;6.85;;;2.40;;
37527;SDS011;23372;52.050;4.810;2023-08-17T02:04:57;6.20;;;2.63;;
37527;SDS011;23372;52.050;4.810;2023-08-17T02:07:23;3.17;;;2.05;;
37527;SDS011;23372;52.050;4.810;2023-08-17T02:09:48;6.43;;;2.55;;
37527;SDS011;23372;52.050;4.810;2023-08-17T02:12:14;9.85;;;3.00;;
37527;SDS011;23372;52.050;4.810;2023-08-17T02:14:39;4.93;;;2.45;;
37527;SDS011;23372;52.050;4.810;2023-08-17T02:17:05;5.32;;;2.90;;
37527;SDS011;23372;52.050;4.810;2023-08-17T02:19:31;8.18;;;2.80;;
37527;SDS011;23372;52.050;4.810;2023-08-17T02:21:58;6.90;;;3.28;;
37527;SDS011;23372;52.050;4.810;2023-08-17T02:24:23;6.18;;;2.53;;
37527;SDS011;23372;52.050;4.810;2023-08-17T02:26:49;4.50;;;2.60;;
37527;SDS011;23372;52.050;4.810;2023-08-17T02:29:15;7.72;;;3.40;;
37527;SDS011;23372;52.050;4.810;2023-08-17T02:31:40;7.28;;;3.05;;
37527;SDS011;23372;52.050;4.810;2023-08-17T02:34:06;7.53;;;2.70;;
37527;SDS011;23372;52.050;4.810;2023-08-17T02:36:32;5.10;;;3.25;;
37527;SDS011;23372;52.050;4.810;2023-08-17T02:38:58;9.70;;;3.40;;
37527;SDS011;23372;52.050;4.810;2023-08-17T02:41:24;5.53;;;3.33;;
37527;SDS011;23372;52.050;4.810;2023-08-17T02:43:49;6.85;;;3.08;;
37527;SDS011;23372;52.050;4.810;2023-08-17T02:46:15;5.10;;;2.97;;
37527;SDS011;23372;52.050;4.810;2023-08-17T02:48:41;5.35;;;3.45;;
37527;SDS011;23372;52.050;4.810;2023-08-17T02:51:06;6.53;;;3.47;;
37527;SDS011;23372;52.050;4.810;2023-08-17T02:53:32;7.80;;;3.45;;
37527;SDS011;23372;52.050;4.810;2023-08-17T02:55:57;6.57;;;3.20;;
37527;SDS011;23372;52.050;4.810;2023-08-17T02:58:23;4.07;;;2.75;;
37527;SDS011;23372;52.050;4.810;2023-08-17T03:00:51;6.40;;;3.70;;
37527;SDS011;23372;52.050;4.810;2023-08-17T03:03:17;6.88;;;3.67;;
37527;SDS011;23372;52.050;4.810;2023-08-17T03:05:42;7.70;;;3.63;;
37527;SDS011;23372;52.050;4.810;2023-08-17T03:08:08;7.97;;;3.33;;
37527;SDS011;23372;52.050;4.810;2023-08-17T03:10:33;8.60;;;3.75;;
37527;SDS011;23372;52.050;4.810;2023-08-17T03:12:59;8.82;;;3.55;;
37527;SDS011;23372;52.050;4.810;2023-08-17T03:15:24;12.13;;;3.33;;
37527;SDS011;23372;52.050;4.810;2023-08-17T03:17:50;13.93;;;3.53;;
37527;SDS011;23372;52.050;4.810;2023-08-17T03:20:16;9.63;;;3.17;;
37527;SDS011;23372;52.050;4.810;2023-08-17T03:22:41;4.72;;;3.20;;
37527;SDS011;23372;52.050;4.810;2023-08-17T03:25:07;6.68;;;3.28;;
37527;SDS011;23372;52.050;4.810;2023-08-17T03:27:33;7.18;;;3.33;;
37527;SDS011;23372;52.050;4.810;2023-08-17T03:29:59;8.77;;;3.60;;
37527;SDS011;23372;52.050;4.810;2023-08-17T03:32:24;6.38;;;3.63;;
37527;SDS011;23372;52.050;4.810;2023-08-17T03:34:50;6.25;;;3.22;;
37527;SDS011;23372;52.050;4.810;2023-08-17T03:37:16;5.97;;;3.40;;
37527;SDS011;23372;52.050;4.810;2023-08-17T03:39:41;9.93;;;3.72;;
37527;SDS011;23372;52.050;4.810;2023-08-17T03:42:07;6.35;;;3.28;;
37527;SDS011;23372;52.050;4.810;2023-08-17T03:44:33;7.78;;;3.53;;
37527;SDS011;23372;52.050;4.810;2023-08-17T03:46:58;14.30;;;3.97;;
37527;SDS011;23372;52.050;4.810;2023-08-17T03:49:24;5.95;;;3.15;;
37527;SDS011;23372;52.050;4.810;2023-08-17T03:51:49;8.30;;;3.25;;
37527;SDS011;23372;52.050;4.810;2023-08-17T03:54:16;9.07;;;3.22;;
37527;SDS011;23372;52.050;4.810;2023-08-17T03:56:42;9.43;;;3.70;;
37527;SDS011;23372;52.050;4.810;2023-08-17T03:59:08;6.88;;;3.35;;
37527;SDS011;23372;52.050;4.810;2023-08-17T04:01:33;8.77;;;2.97;;
37527;SDS011;23372;52.050;4.810;2023-08-17T04:03:59;7.38;;;3.13;;
37527;SDS011;23372;52.050;4.810;2023-08-17T04:06:24;7.03;;;2.72;;
37527;SDS011;23372;52.050;4.810;2023-08-17T04:08:50;8.38;;;3.20;;
37527;SDS011;23372;52.050;4.810;2023-08-17T04:11:15;8.95;;;2.80;;
37527;SDS011;23372;52.050;4.810;2023-08-17T04:13:41;6.65;;;3.25;;
37527;SDS011;23372;52.050;4.810;2023-08-17T04:16:06;8.35;;;3.20;;
37527;SDS011;23372;52.050;4.810;2023-08-17T04:18:32;6.05;;;2.72;;
37527;SDS011;23372;52.050;4.810;2023-08-17T04:20:57;4.22;;;2.70;;
37527;SDS011;23372;52.050;4.810;2023-08-17T04:23:23;4.45;;;3.25;;
37527;SDS011;23372;52.050;4.810;2023-08-17T04:25:49;5.25;;;2.65;;
37527;SDS011;23372;52.050;4.810;2023-08-17T04:28:14;5.53;;;2.60;;
37527;SDS011;23372;52.050;4.810;2023-08-17T04:30:40;7.40;;;4.13;;
37527;SDS011;23372;52.050;4.810;2023-08-17T04:33:06;6.00;;;2.78;;
37527;SDS011;23372;52.050;4.810;2023-08-17T04:35:32;11.98;;;3.08;;
37527;SDS011;23372;52.050;4.810;2023-08-17T04:37:58;4.82;;;2.63;;
37527;SDS011;23372;52.050;4.810;2023-08-17T04:40:24;7.07;;;2.63;;
37527;SDS011;23372;52.050;4.810;2023-08-17T04:42:49;8.68;;;4.30;;
37527;SDS011;23372;52.050;4.810;2023-08-17T04:45:15;8.93;;;3.28;;
37527;SDS011;23372;52.050;4.810;2023-08-17T04:47:40;6.43;;;2.70;;
37527;SDS011;23372;52.050;4.810;2023-08-17T04:50:06;8.68;;;2.50;;
37527;SDS011;23372;52.050;4.810;2023-08-17T04:52:32;11.82;;;2.75;;
37527;SDS011;23372;52.050;4.810;2023-08-17T04:54:57;7.47;;;2.97;;
37527;SDS011;23372;52.050;4.810;2023-08-17T04:57:23;6.35;;;3.78;;
37527;SDS011;23372;52.050;4.810;2023-08-17T04:59:49;14.40;;;2.97;;
37527;SDS011;23372;52.050;4.810;2023-08-17T05:02:15;6.43;;;2.58;;
37527;SDS011;23372;52.050;4.810;2023-08-17T05:04:40;4.78;;;2.35;;
37527;SDS011;23372;52.050;4.810;2023-08-17T05:07:07;6.85;;;2.30;;
37527;SDS011;23372;52.050;4.810;2023-08-17T05:09:33;5.00;;;2.10;;
37527;SDS011;23372;52.050;4.810;2023-08-17T05:11:58;11.52;;;2.50;;
37527;SDS011;23372;52.050;4.810;2023-08-17T05:14:24;5.30;;;2.13;;
37527;SDS011;23372;52.050;4.810;2023-08-17T05:16:49;5.15;;;2.17;;
37527;SDS011;23372;52.050;4.810;2023-08-17T05:19:15;8.05;;;2.88;;
37527;SDS011;23372;52.050;4.810;2023-08-17T05:21:40;7.72;;;2.78;;
37527;SDS011;23372;52.050;4.810;2023-08-17T05:24:06;5.05;;;2.50;;
37527;SDS011;23372;52.050;4.810;2023-08-17T05:26:32;7.43;;;2.20;;
37527;SDS011;23372;52.050;4.810;2023-08-17T05:28:57;7.22;;;2.67;;
37527;SDS011;23372;52.050;4.810;2023-08-17T05:31:23;6.60;;;2.38;;
37527;SDS011;23372;52.050;4.810;2023-08-17T05:33:48;9.15;;;2.58;;
37527;SDS011;23372;52.050;4.810;2023-08-17T05:36:14;8.27;;;2.50;;
37527;SDS011;23372;52.050;4.810;2023-08-17T05:38:39;3.75;;;2.20;;
37527;SDS011;23372;52.050;4.810;2023-08-17T05:41:05;13.10;;;2.80;;
37527;SDS011;23372;52.050;4.810;2023-08-17T05:43:31;5.45;;;2.13;;
37527;SDS011;23372;52.050;4.810;2023-08-17T05:45:57;12.95;;;3.00;;
37527;SDS011;23372;52.050;4.810;2023-08-17T05:48:24;7.00;;;2.47;;
37527;SDS011;23372;52.050;4.810;2023-08-17T05:50:49;4.97;;;2.10;;
37527;SDS011;23372;52.050;4.810;2023-08-17T05:53:15;4.90;;;3.15;;
37527;SDS011;23372;52.050;4.810;2023-08-17T05:55:41;4.32;;;2.22;;
37527;SDS011;23372;52.050;4.810;2023-08-17T05:58:06;5.13;;;1.95;;
37527;SDS011;23372;52.050;4.810;2023-08-17T06:00:32;5.28;;;3.33;;
37527;SDS011;23372;52.050;4.810;2023-08-17T06:02:57;6.13;;;2.30;;
37527;SDS011;23372;52.050;4.810;2023-08-17T06:05:29;6.15;;;2.35;;
37527;SDS011;23372;52.050;4.810;2023-08-17T06:07:58;4.25;;;2.50;;
37527;SDS011;23372;52.050;4.810;2023-08-17T06:10:24;4.13;;;2.20;;
37527;SDS011;23372;52.050;4.810;2023-08-17T06:12:53;6.60;;;2.35;;
37527;SDS011;23372;52.050;4.810;2023-08-17T06:15:19;8.77;;;2.38;;
37527;SDS011;23372;52.050;4.810;2023-08-17T06:17:45;5.55;;;2.50;;
37527;SDS011;23372;52.050;4.810;2023-08-17T06:20:11;5.95;;;2.30;;
37527;SDS011;23372;52.050;4.810;2023-08-17T06:22:37;7.78;;;3.58;;
37527;SDS011;23372;52.050;4.810;2023-08-17T06:25:04;7.88;;;2.55;;
37527;SDS011;23372;52.050;4.810;2023-08-17T06:27:30;11.05;;;3.25;;
37527;SDS011;23372;52.050;4.810;2023-08-17T06:29:56;5.25;;;2.22;;
37527;SDS011;23372;52.050;4.810;2023-08-17T06:32:22;5.57;;;2.30;;
37527;SDS011;23372;52.050;4.810;2023-08-17T06:34:47;7.05;;;2.13;;
37527;SDS011;23372;52.050;4.810;2023-08-17T06:37:13;8.15;;;2.42;;
37527;SDS011;23372;52.050;4.810;2023-08-17T06:39:38;6.90;;;2.53;;
37527;SDS011;23372;52.050;4.810;2023-08-17T06:42:04;9.85;;;2.20;;
37527;SDS011;23372;52.050;4.810;2023-08-17T06:44:30;8.80;;;2.40;;
37527;SDS011;23372;52.050;4.810;2023-08-17T06:46:56;8.27;;;3.22;;
37527;SDS011;23372;52.050;4.810;2023-08-17T06:49:22;8.18;;;2.33;;
37527;SDS011;23372;52.050;4.810;2023-08-17T06:51:47;5.28;;;2.13;;
37527;SDS011;23372;52.050;4.810;2023-08-17T06:54:13;4.85;;;2.28;;
37527;SDS011;23372;52.050;4.810;2023-08-17T06:56:38;10.55;;;2.85;;
37527;SDS011;23372;52.050;4.810;2023-08-17T06:59:04;4.45;;;2.00;;
37527;SDS011;23372;52.050;4.810;2023-08-17T07:01:30;3.90;;;1.77;;
37527;SDS011;23372;52.050;4.810;2023-08-17T07:03:55;4.00;;;1.98;;
37527;SDS011;23372;52.050;4.810;2023-08-17T07:06:22;3.55;;;1.85;;
37527;SDS011;23372;52.050;4.810;2023-08-17T07:08:48;7.13;;;1.95;;
37527;SDS011;23372;52.050;4.810;2023-08-17T07:11:13;5.28;;;2.00;;
37527;SDS011;23372;52.050;4.810;2023-08-17T07:13:39;6.35;;;1.90;;
37527;SDS011;23372;52.050;4.810;2023-08-17T07:16:04;6.43;;;1.98;;
37527;SDS011;23372;52.050;4.810;2023-08-17T07:18:30;2.88;;;1.70;;
37527;SDS011;23372;52.050;4.810;2023-08-17T07:20:55;5.65;;;1.80;;
37527;SDS011;23372;52.050;4.810;2023-08-17T07:23:21;3.88;;;1.58;;
37527;SDS011;23372;52.050;4.810;2023-08-17T07:25:47;6.35;;;1.77;;
37527;SDS011;23372;52.050;4.810;2023-08-17T07:28:13;7.28;;;2.10;;
37527;SDS011;23372;52.050;4.810;2023-08-17T07:30:40;6.60;;;1.52;;
37527;SDS011;23372;52.050;4.810;2023-08-17T07:33:06;5.80;;;1.92;;
37527;SDS011;23372;52.050;4.810;2023-08-17T07:35:32;8.88;;;2.10;;
37527;SDS011;23372;52.050;4.810;2023-08-17T07:37:57;5.68;;;1.80;;
37527;SDS011;23372;52.050;4.810;2023-08-17T07:40:23;6.30;;;1.90;;
37527;SDS011;23372;52.050;4.810;2023-08-17T07:42:48;4.93;;;1.73;;
37527;SDS011;23372;52.050;4.810;2023-08-17T07:45:14;5.03;;;1.90;;
37527;SDS011;23372;52.050;4.810;2023-08-17T07:47:40;7.75;;;2.28;;
37527;SDS011;23372;52.050;4.810;2023-08-17T07:50:06;7.43;;;2.05;;
37527;SDS011;23372;52.050;4.810;2023-08-17T07:52:32;7.13;;;1.92;;
37527;SDS011;23372;52.050;4.810;2023-08-17T07:54:58;7.10;;;1.80;;
37527;SDS011;23372;52.050;4.810;2023-08-17T07:57:24;6.13;;;1.77;;
37527;SDS011;23372;52.050;4.810;2023-08-17T07:59:49;3.33;;;1.55;;
37527;SDS011;23372;52.050;4.810;2023-08-17T08:02:16;5.32;;;1.88;;
37527;SDS011;23372;52.050;4.810;2023-08-17T08:04:42;6.15;;;1.60;;
37527;SDS011;23372;52.050;4.810;2023-08-17T08:07:08;5.63;;;1.38;;
37527;SDS011;23372;52.050;4.810;2023-08-17T08:09:34;5.35;;;1.90;;
37527;SDS011;23372;52.050;4.810;2023-08-17T08:12:00;4.82;;;1.70;;
37527;SDS011;23372;52.050;4.810;2023-08-17T08:14:25;6.32;;;1.60;;
37527;SDS011;23372;52.050;4.810;2023-08-17T08:16:51;5.20;;;1.52;;
37527;SDS011;23372;52.050;4.810;2023-08-17T08:19:17;5.82;;;1.60;;
37527;SDS011;23372;52.050;4.810;2023-08-17T08:21:42;5.85;;;1.90;;
37527;SDS011;23372;52.050;4.810;2023-08-17T08:24:08;3.25;;;1.48;;
37527;SDS011;23372;52.050;4.810;2023-08-17T08:26:33;4.55;;;1.58;;
37527;SDS011;23372;52.050;4.810;2023-08-17T08:28:59;6.38;;;1.63;;
37527;SDS011;23372;52.050;4.810;2023-08-17T08:31:25;4.45;;;2.00;;
37527;SDS011;23372;52.050;4.810;2023-08-17T08:33:50;4.70;;;1.73;;
37527;SDS011;23372;52.050;4.810;2023-08-17T08:36:17;3.83;;;1.58;;
37527;SDS011;23372;52.050;4.810;2023-08-17T08:38:43;8.27;;;1.90;;
37527;SDS011;23372;52.050;4.810;2023-08-17T08:41:10;4.13;;;1.70;;
37527;SDS011;23372;52.050;4.810;2023-08-17T08:43:36;8.77;;;1.60;;
37527;SDS011;23372;52.050;4.810;2023-08-17T08:46:03;5.75;;;1.55;;
37527;SDS011;23372;52.050;4.810;2023-08-17T08:48:30;4.22;;;1.42;;
37527;SDS011;23372;52.050;4.810;2023-08-17T08:50:57;7.22;;;1.90;;
37527;SDS011;23372;52.050;4.810;2023-08-17T08:53:31;8.80;;;1.90;;
37527;SDS011;23372;52.050;4.810;2023-08-17T08:56:01;5.32;;;1.60;;
37527;SDS011;23372;52.050;4.810;2023-08-17T08:58:28;6.03;;;2.00;;
37527;SDS011;23372;52.050;4.810;2023-08-17T09:00:56;7.60;;;1.60;;
37527;SDS011;23372;52.050;4.810;2023-08-17T09:03:23;3.42;;;1.73;;
37527;SDS011;23372;52.050;4.810;2023-08-17T09:05:50;5.47;;;1.83;;
37527;SDS011;23372;52.050;4.810;2023-08-17T09:08:20;4.82;;;1.88;;
37527;SDS011;23372;52.050;4.810;2023-08-17T09:10:47;7.13;;;2.17;;
37527;SDS011;23372;52.050;4.810;2023-08-17T09:13:13;5.25;;;2.20;;
37527;SDS011;23372;52.050;4.810;2023-08-17T09:15:39;5.97;;;1.90;;
37527;SDS011;23372;52.050;4.810;2023-08-17T09:18:07;7.68;;;2.20;;
37527;SDS011;23372;52.050;4.810;2023-08-17T09:20:37;5.07;;;1.92;;
37527;SDS011;23372;52.050;4.810;2023-08-17T09:23:09;6.20;;;2.38;;
37527;SDS011;23372;52.050;4.810;2023-08-17T09:25:46;4.57;;;1.90;;
37527;SDS011;23372;52.050;4.810;2023-08-17T09:28:13;6.40;;;2.15;;
37527;SDS011;23372;52.050;4.810;2023-08-17T09:30:49;4.25;;;1.80;;
37527;SDS011;23372;52.050;4.810;2023-08-17T09:33:22;6.32;;;2.40;;
37527;SDS011;23372;52.050;4.810;2023-08-17T09:35:48;6.97;;;2.45;;
37527;SDS011;23372;52.050;4.810;2023-08-17T09:38:18;4.22;;;1.85;;
37527;SDS011;23372;52.050;4.810;2023-08-17T09:40:44;4.70;;;2.10;;
37527;SDS011;23372;52.050;4.810;2023-08-17T09:43:11;7.07;;;2.30;;
37527;SDS011;23372;52.050;4.810;2023-08-17T09:45:38;5.75;;;2.00;;
37527;SDS011;23372;52.050;4.810;2023-08-17T09:48:04;7.18;;;2.65;;
37527;SDS011;23372;52.050;4.810;2023-08-17T09:50:31;9.65;;;2.13;;
37527;SDS011;23372;52.050;4.810;2023-08-17T09:52:57;8.80;;;2.47;;
37527;SDS011;23372;52.050;4.810;2023-08-17T09:55:23;8.80;;;2.00;;
37527;SDS011;23372;52.050;4.810;2023-08-17T09:57:49;5.43;;;2.03;;
37527;SDS011;23372;52.050;4.810;2023-08-17T10:00:15;7.25;;;2.03;;
37527;SDS011;23372;52.050;4.810;2023-08-17T10:02:42;5.00;;;2.03;;
37527;SDS011;23372;52.050;4.810;2023-08-17T10:05:10;6.15;;;1.83;;
37527;SDS011;23372;52.050;4.810;2023-08-17T10:07:38;5.00;;;2.45;;
37527;SDS011;23372;52.050;4.810;2023-08-17T10:10:06;8.27;;;2.25;;
37527;SDS011;23372;52.050;4.810;2023-08-17T10:12:37;6.35;;;2.72;;
37527;SDS011;23372;52.050;4.810;2023-08-17T10:15:10;9.02;;;1.85;;
37527;SDS011;23372;52.050;4.810;2023-08-17T10:17:42;6.38;;;2.40;;
37527;SDS011;23372;52.050;4.810;2023-08-17T10:20:10;4.97;;;2.05;;
37527;SDS011;23372;52.050;4.810;2023-08-17T10:22:39;6.70;;;2.30;;
37527;SDS011;23372;52.050;4.810;2023-08-17T10:25:11;5.85;;;1.70;;
37527;SDS011;23372;52.050;4.810;2023-08-17T10:27:38;3.67;;;1.58;;
37527;SDS011;23372;52.050;4.810;2023-08-17T10:30:06;5.68;;;1.80;;
37527;SDS011;23372;52.050;4.810;2023-08-17T10:32:36;5.22;;;2.10;;
37527;SDS011;23372;52.050;4.810;2023-08-17T10:35:02;6.07;;;1.92;;
37527;SDS011;23372;52.050;4.810;2023-08-17T10:37:29;6.25;;;1.90;;
37527;SDS011;23372;52.050;4.810;2023-08-17T10:39:55;5.28;;;1.80;;
37527;SDS011;23372;52.050;4.810;2023-08-17T10:42:31;4.03;;;1.98;;
37527;SDS011;23372;52.050;4.810;2023-08-17T10:45:01;5.45;;;2.10;;
37527;SDS011;23372;52.050;4.810;2023-08-17T10:47:48;7.18;;;1.80;;
37527;SDS011;23372;52.050;4.810;2023-08-17T10:50:24;4.45;;;1.90;;
37527;SDS011;23372;52.050;4.810;2023-08-17T10:52:50;8.30;;;2.28;;
37527;SDS011;23372;52.050;4.810;2023-08-17T10:55:20;8.88;;;1.98;;
37527;SDS011;23372;52.050;4.810;2023-08-17T10:58:20;4.65;;;1.67;;
37527;SDS011;23372;52.050;4.810;2023-08-17T11:00:46;4.63;;;1.65;;
37527;SDS011;23372;52.050;4.810;2023-08-17T11:03:19;4.05;;;2.25;;
37527;SDS011;23372;52.050;4.810;2023-08-17T11:05:50;6.57;;;2.58;;
37527;SDS011;23372;52.050;4.810;2023-08-17T11:08:34;6.75;;;2.50;;
37527;SDS011;23372;52.050;4.810;2023-08-17T11:11:06;8.10;;;2.20;;
37527;SDS011;23372;52.050;4.810;2023-08-17T11:13:39;7.88;;;1.92;;
37527;SDS011;23372;52.050;4.810;2023-08-17T11:16:07;11.55;;;2.22;;
37527;SDS011;23372;52.050;4.810;2023-08-17T11:18:34;4.65;;;2.50;;
37527;SDS011;23372;52.050;4.810;2023-08-17T11:21:00;6.40;;;2.47;;
37527;SDS011;23372;52.050;4.810;2023-08-17T11:23:30;6.47;;;2.25;;
37527;SDS011;23372;52.050;4.810;2023-08-17T11:25:57;6.07;;;2.30;;
37527;SDS011;23372;52.050;4.810;2023-08-17T11:28:23;4.53;;;2.30;;
37527;SDS011;23372;52.050;4.810;2023-08-17T11:30:59;9.90;;;2.67;;
37527;SDS011;23372;52.050;4.810;2023-08-17T11:33:26;7.32;;;2.70;;
37527;SDS011;23372;52.050;4.810;2023-08-17T11:35:56;7.47;;;2.67;;
37527;SDS011;23372;52.050;4.810;2023-08-17T11:38:29;5.72;;;2.15;;
37527;SDS011;23372;52.050;4.810;2023-08-17T11:40:57;4.88;;;2.60;;
37527;SDS011;23372;52.050;4.810;2023-08-17T11:43:24;8.30;;;2.65;;
37527;SDS011;23372;52.050;4.810;2023-08-17T11:45:51;7.18;;;2.65;;
37527;SDS011;23372;52.050;4.810;2023-08-17T11:48:18;8.93;;;2.30;;
37527;SDS011;23372;52.050;4.810;2023-08-17T11:50:44;5.85;;;2.20;;
37527;SDS011;23372;52.050;4.810;2023-08-17T11:53:10;6.10;;;2.88;;
37527;SDS011;23372;52.050;4.810;2023-08-17T11:55:36;5.50;;;3.50;;
37527;SDS011;23372;52.050;4.810;2023-08-17T11:58:02;6.13;;;3.10;;
37527;SDS011;23372;52.050;4.810;2023-08-17T12:00:28;7.75;;;3.50;;
37527;SDS011;23372;52.050;4.810;2023-08-17T12:03:05;4.22;;;2.92;;
37527;SDS011;23372;52.050;4.810;2023-08-17T12:05:31;6.13;;;2.95;;
37527;SDS011;23372;52.050;4.810;2023-08-17T12:07:58;8.45;;;2.95;;
37527;SDS011;23372;52.050;4.810;2023-08-17T12:10:27;6.57;;;2.90;;
37527;SDS011;23372;52.050;4.810;2023-08-17T12:12:56;8.73;;;3.00;;
37527;SDS011;23372;52.050;4.810;2023-08-17T12:15:30;7.80;;;3.00;;
37527;SDS011;23372;52.050;4.810;2023-08-17T12:17:58;6.45;;;2.90;;
37527;SDS011;23372;52.050;4.810;2023-08-17T12:20:24;6.35;;;3.00;;
37527;SDS011;23372;52.050;4.810;2023-08-17T12:22:50;8.80;;;3.05;;
37527;SDS011;23372;52.050;4.810;2023-08-17T12:25:16;6.78;;;3.10;;
37527;SDS011;23372;52.050;4.810;2023-08-17T12:27:46;8.25;;;3.13;;
37527;SDS011;23372;52.050;4.810;2023-08-17T12:30:34;6.88;;;2.85;;
37527;SDS011;23372;52.050;4.810;2023-08-17T12:33:01;10.25;;;3.42;;
37527;SDS011;23372;52.050;4.810;2023-08-17T12:35:26;7.40;;;2.97;;
37527;SDS011;23372;52.050;4.810;2023-08-17T12:37:52;5.05;;;3.08;;
37527;SDS011;23372;52.050;4.810;2023-08-17T12:40:19;7.68;;;3.47;;
37527;SDS011;23372;52.050;4.810;2023-08-17T12:42:45;9.05;;;3.33;;
37527;SDS011;23372;52.050;4.810;2023-08-17T12:45:11;5.25;;;2.95;;
37527;SDS011;23372;52.050;4.810;2023-08-17T12:47:36;7.18;;;3.20;;
37527;SDS011;23372;52.050;4.810;2023-08-17T12:50:03;6.68;;;3.13;;
37527;SDS011;23372;52.050;4.810;2023-08-17T12:52:29;6.55;;;3.65;;
37527;SDS011;23372;52.050;4.810;2023-08-17T12:54:54;8.32;;;3.80;;
37527;SDS011;23372;52.050;4.810;2023-08-17T12:57:20;8.52;;;3.35;;
37527;SDS011;23372;52.050;4.810;2023-08-17T12:59:45;7.40;;;3.40;;
37527;SDS011;23372;52.050;4.810;2023-08-17T13:02:11;4.13;;;2.80;;
37527;SDS011;23372;52.050;4.810;2023-08-17T13:04:37;6.38;;;3.92;;
37527;SDS011;23372;52.050;4.810;2023-08-17T13:07:02;9.27;;;2.97;;
37527;SDS011;23372;52.050;4.810;2023-08-17T13:09:28;6.90;;;3.40;;
37527;SDS011;23372;52.050;4.810;2023-08-17T13:11:54;8.50;;;3.92;;
37527;SDS011;23372;52.050;4.810;2023-08-17T13:14:19;8.90;;;3.17;;
37527;SDS011;23372;52.050;4.810;2023-08-17T13:16:45;6.90;;;3.17;;
37527;SDS011;23372;52.050;4.810;2023-08-17T13:19:10;7.22;;;2.90;;
37527;SDS011;23372;52.050;4.810;2023-08-17T13:21:36;8.45;;;4.10;;
37527;SDS011;23372;52.050;4.810;2023-08-17T13:24:01;9.88;;;3.42;;
37527;SDS011;23372;52.050;4.810;2023-08-17T13:26:29;6.07;;;3.42;;
37527;SDS011;23372;52.050;4.810;2023-08-17T13:28:55;6.15;;;3.28;;
37527;SDS011;23372;52.050;4.810;2023-08-17T13:31:21;8.23;;;3.65;;
37527;SDS011;23372;52.050;4.810;2023-08-17T13:33:46;4.65;;;3.42;;
37527;SDS011;23372;52.050;4.810;2023-08-17T13:36:12;8.68;;;3.80;;
37527;SDS011;23372;52.050;4.810;2023-08-17T13:38:37;8.75;;;3.60;;
37527;SDS011;23372;52.050;4.810;2023-08-17T13:41:03;8.23;;;3.90;;
37527;SDS011;23372;52.050;4.810;2023-08-17T13:43:29;9.13;;;3.88;;
37527;SDS011;23372;52.050;4.810;2023-08-17T13:45:55;7.72;;;3.67;;
37527;SDS011;23372;52.050;4.810;2023-08-17T13:48:20;8.95;;;4.07;;
37527;SDS011;23372;52.050;4.810;2023-08-17T13:50:46;7.85;;;4.00;;
37527;SDS011;23372;52.050;4.810;2023-08-17T13:53:12;8.88;;;3.63;;
37527;SDS011;23372;52.050;4.810;2023-08-17T13:55:37;9.18;;;3.65;;
37527;SDS011;23372;52.050;4.810;2023-08-17T13:58:03;7.43;;;3.75;;
37527;SDS011;23372;52.050;4.810;2023-08-17T14:00:29;5.72;;;3.60;;
37527;SDS011;23372;52.050;4.810;2023-08-17T14:02:54;7.63;;;3.55;;
37527;SDS011;23372;52.050;4.810;2023-08-17T14:05:20;9.90;;;3.50;;
37527;SDS011;23372;52.050;4.810;2023-08-17T14:07:47;11.13;;;4.20;;
37527;SDS011;23372;52.050;4.810;2023-08-17T14:10:13;6.75;;;3.90;;
37527;SDS011;23372;52.050;4.810;2023-08-17T14:12:39;10.05;;;4.78;;
37527;SDS011;23372;52.050;4.810;2023-08-17T14:15:04;8.63;;;4.63;;
37527;SDS011;23372;52.050;4.810;2023-08-17T14:17:31;7.32;;;4.40;;
37527;SDS011;23372;52.050;4.810;2023-08-17T14:19:56;8.27;;;4.00;;
37527;SDS011;23372;52.050;4.810;2023-08-17T14:22:22;7.07;;;4.05;;
37527;SDS011;23372;52.050;4.810;2023-08-17T14:24:47;7.45;;;4.40;;
37527;SDS011;23372;52.050;4.810;2023-08-17T14:27:13;10.20;;;4.38;;
37527;SDS011;23372;52.050;4.810;2023-08-17T14:29:38;7.78;;;4.07;;
37527;SDS011;23372;52.050;4.810;2023-08-17T14:32:04;10.27;;;4.38;;
37527;SDS011;23372;52.050;4.810;2023-08-17T14:34:30;6.28;;;3.83;;
37527;SDS011;23372;52.050;4.810;2023-08-17T14:36:55;13.65;;;3.83;;
37527;SDS011;23372;52.050;4.810;2023-08-17T14:39:21;6.22;;;3.75;;
37527;SDS011;23372;52.050;4.810;2023-08-17T14:41:46;7.85;;;4.05;;
37527;SDS011;23372;52.050;4.810;2023-08-17T14:44:12;5.03;;;3.40;;
37527;SDS011;23372;52.050;4.810;2023-08-17T14:46:37;6.43;;;4.10;;
37527;SDS011;23372;52.050;4.810;2023-08-17T14:49:07;6.38;;;3.67;;